sensor_id;sensor_type;location;lat;lon;timestamp;pressure;altitude;pressure_sealevel;temperature;humidity
77212;BME280;66206;0.000;0.000;2023-12-20T00:01:09;97745.91;;;21.91;27.43
77212;BME280;66206;0.000;0.000;2023-12-20T00:03:35;97739.55;;;21.88;27.42
77212;BME280;66206;0.000;0.000;2023-12-20T00:06:02;97739.86;;;21.97;27.43
77212;BME280;66206;0.000;0.000;2023-12-20T00:08:29;97735.48;;;21.95;27.39
77212;BME280;66206;0.000;0.000;2023-12-20T00:10:56;97740.70;;;21.80;27.61
77212;BME280;66206;0.000;0.000;2023-12-20T00:13:22;97740.21;;;21.83;27.60
77212;BME280;66206;0.000;0.000;2023-12-20T00:15:49;97739.76;;;21.78;27.60
77212;BME280;66206;0.000;0.000;2023-12-20T00:18:16;97738.33;;;21.57;27.69
77212;BME280;66206;0.000;0.000;2023-12-20T00:20:42;97737.54;;;21.68;27.68
77212;BME280;66206;0.000;0.000;2023-12-20T00:23:09;97730.48;;;21.69;27.61
77212;BME280;66206;0.000;0.000;2023-12-20T00:25:36;97728.37;;;21.64;27.72
77212;BME280;66206;0.000;0.000;2023-12-20T00:28:02;97719.76;;;21.53;27.84
77212;BME280;66206;0.000;0.000;2023-12-20T00:30:29;97715.02;;;21.56;27.84
77212;BME280;66206;0.000;0.000;2023-12-20T00:32:56;97714.25;;;21.59;27.77
77212;BME280;66206;0.000;0.000;2023-12-20T00:35:23;97709.20;;;21.59;27.72
77212;BME280;66206;0.000;0.000;2023-12-20T00:37:49;97704.94;;;21.42;27.84
77212;BME280;66206;0.000;0.000;2023-12-20T00:40:16;97701.88;;;21.41;27.89
77212;BME280;66206;0.000;0.000;2023-12-20T00:42:43;97700.87;;;21.57;27.80
77212;BME280;66206;0.000;0.000;2023-12-20T00:45:10;97700.84;;;21.58;27.72
77212;BME280;66206;0.000;0.000;2023-12-20T00:47:37;97700.34;;;21.58;27.72
77212;BME280;66206;0.000;0.000;2023-12-20T00:50:04;97699.18;;;21.49;27.78
77212;BME280;66206;0.000;0.000;2023-12-20T00:52:30;97695.21;;;21.40;27.91
77212;BME280;66206;0.000;0.000;2023-12-20T00:54:57;97694.05;;;21.40;27.81
77212;BME280;66206;0.000;0.000;2023-12-20T00:57:24;97694.46;;;21.51;27.77
77212;BME280;66206;0.000;0.000;2023-12-20T00:59:51;97694.53;;;21.48;27.80
77212;BME280;66206;0.000;0.000;2023-12-20T01:02:17;97696.11;;;21.29;27.91
77212;BME280;66206;0.000;0.000;2023-12-20T01:04:44;97692.34;;;21.38;27.90
77212;BME280;66206;0.000;0.000;2023-12-20T01:07:11;97687.92;;;21.41;28.06
77212;BME280;66206;0.000;0.000;2023-12-20T01:09:37;97689.37;;;21.28;28.03
77212;BME280;66206;0.000;0.000;2023-12-20T01:12:04;97690.47;;;21.40;27.91
77212;BME280;66206;0.000;0.000;2023-12-20T01:14:31;97687.42;;;21.22;28.00
77212;BME280;66206;0.000;0.000;2023-12-20T01:16:58;97687.65;;;21.28;28.00
77212;BME280;66206;0.000;0.000;2023-12-20T01:19:24;97688.29;;;21.38;27.94
77212;BME280;66206;0.000;0.000;2023-12-20T01:21:51;97686.74;;;21.27;28.07
77212;BME280;66206;0.000;0.000;2023-12-20T01:24:18;97682.31;;;21.10;28.20
77212;BME280;66206;0.000;0.000;2023-12-20T01:26:44;97679.88;;;21.16;28.26
77212;BME280;66206;0.000;0.000;2023-12-20T01:29:11;97679.65;;;20.96;28.30
77212;BME280;66206;0.000;0.000;2023-12-20T01:31:38;97676.73;;;21.36;27.99
77212;BME280;66206;0.000;0.000;2023-12-20T01:34:05;97672.27;;;21.23;28.20
77212;BME280;66206;0.000;0.000;2023-12-20T01:36:31;97666.19;;;21.12;28.13
77212;BME280;66206;0.000;0.000;2023-12-20T01:38:58;97670.22;;;21.31;28.05
77212;BME280;66206;0.000;0.000;2023-12-20T01:41:24;97665.60;;;21.19;28.01
77212;BME280;66206;0.000;0.000;2023-12-20T01:43:51;97668.61;;;21.20;27.98
77212;BME280;66206;0.000;0.000;2023-12-20T01:46:18;97663.78;;;21.39;27.96
77212;BME280;66206;0.000;0.000;2023-12-20T01:48:45;97661.78;;;21.24;27.98
77212;BME280;66206;0.000;0.000;2023-12-20T01:51:12;97656.22;;;21.25;28.07
77212;BME280;66206;0.000;0.000;2023-12-20T01:53:39;97657.85;;;21.15;28.19
77212;BME280;66206;0.000;0.000;2023-12-20T01:56:06;97660.08;;;21.18;28.01
77212;BME280;66206;0.000;0.000;2023-12-20T01:58:33;97661.02;;;21.08;28.01
77212;BME280;66206;0.000;0.000;2023-12-20T02:01:00;97664.98;;;21.14;28.02
77212;BME280;66206;0.000;0.000;2023-12-20T02:03:27;97665.17;;;21.32;27.94
77212;BME280;66206;0.000;0.000;2023-12-20T02:05:54;97663.66;;;21.23;27.95
77212;BME280;66206;0.000;0.000;2023-12-20T02:08:21;97655.22;;;21.09;28.07
77212;BME280;66206;0.000;0.000;2023-12-20T02:10:47;97656.68;;;21.29;27.85
77212;BME280;66206;0.000;0.000;2023-12-20T02:13:14;97653.00;;;21.23;28.07
77212;BME280;66206;0.000;0.000;2023-12-20T02:15:41;97658.45;;;21.28;27.94
77212;BME280;66206;0.000;0.000;2023-12-20T02:18:07;97655.06;;;21.12;28.00
77212;BME280;66206;0.000;0.000;2023-12-20T02:20:34;97652.75;;;21.25;27.87
77212;BME280;66206;0.000;0.000;2023-12-20T02:23:01;97648.97;;;21.22;27.95
77212;BME280;66206;0.000;0.000;2023-12-20T02:25:27;97647.68;;;21.22;27.97
77212;BME280;66206;0.000;0.000;2023-12-20T02:27:54;97642.90;;;21.01;28.08
77212;BME280;66206;0.000;0.000;2023-12-20T02:30:21;97648.71;;;21.15;28.03
77212;BME280;66206;0.000;0.000;2023-12-20T02:32:48;97647.37;;;21.17;28.09
77212;BME280;66206;0.000;0.000;2023-12-20T02:35:16;97651.87;;;21.14;28.03
77212;BME280;66206;0.000;0.000;2023-12-20T02:37:42;97650.25;;;21.12;28.05
77212;BME280;66206;0.000;0.000;2023-12-20T02:40:09;97644.12;;;21.36;28.03
77212;BME280;66206;0.000;0.000;2023-12-20T02:42:36;97643.01;;;21.05;28.14
77212;BME280;66206;0.000;0.000;2023-12-20T02:45:03;97643.48;;;21.14;28.01
77212;BME280;66206;0.000;0.000;2023-12-20T02:47:30;97644.67;;;21.17;27.91
77212;BME280;66206;0.000;0.000;2023-12-20T02:49:56;97649.11;;;21.08;28.02
77212;BME280;66206;0.000;0.000;2023-12-20T02:52:23;97653.13;;;21.14;28.01
77212;BME280;66206;0.000;0.000;2023-12-20T02:54:50;97652.39;;;21.29;27.87
77212;BME280;66206;0.000;0.000;2023-12-20T02:57:17;97652.99;;;21.13;28.00
77212;BME280;66206;0.000;0.000;2023-12-20T02:59:43;97650.46;;;21.03;28.08
77212;BME280;66206;0.000;0.000;2023-12-20T03:02:10;97651.72;;;21.15;27.97
77212;BME280;66206;0.000;0.000;2023-12-20T03:04:37;97649.73;;;21.05;28.02
77212;BME280;66206;0.000;0.000;2023-12-20T03:07:03;97649.60;;;21.20;27.96
77212;BME280;66206;0.000;0.000;2023-12-20T03:09:30;97649.47;;;20.95;28.11
77212;BME280;66206;0.000;0.000;2023-12-20T03:11:57;97647.71;;;21.13;28.05
77212;BME280;66206;0.000;0.000;2023-12-20T03:14:23;97645.05;;;20.84;28.15
77212;BME280;66206;0.000;0.000;2023-12-20T03:16:50;97642.70;;;20.93;28.02
77212;BME280;66206;0.000;0.000;2023-12-20T03:19:17;97646.18;;;21.09;27.91
77212;BME280;66206;0.000;0.000;2023-12-20T03:21:44;97643.50;;;21.10;27.91
77212;BME280;66206;0.000;0.000;2023-12-20T03:24:11;97647.54;;;21.16;27.85
77212;BME280;66206;0.000;0.000;2023-12-20T03:26:37;97647.63;;;21.19;27.90
77212;BME280;66206;0.000;0.000;2023-12-20T03:29:04;97647.36;;;21.25;27.92
77212;BME280;66206;0.000;0.000;2023-12-20T03:31:31;97649.57;;;21.07;28.04
77212;BME280;66206;0.000;0.000;2023-12-20T03:33:58;97654.86;;;20.99;27.92
77212;BME280;66206;0.000;0.000;2023-12-20T03:36:24;97656.33;;;21.22;27.82
77212;BME280;66206;0.000;0.000;2023-12-20T03:38:51;97653.91;;;21.03;27.99
77212;BME280;66206;0.000;0.000;2023-12-20T03:41:18;97653.14;;;21.18;28.03
77212;BME280;66206;0.000;0.000;2023-12-20T03:43:44;97652.04;;;21.12;27.88
77212;BME280;66206;0.000;0.000;2023-12-20T03:46:11;97650.66;;;21.21;27.92
77212;BME280;66206;0.000;0.000;2023-12-20T03:48:38;97656.90;;;21.12;27.98
77212;BME280;66206;0.000;0.000;2023-12-20T03:51:04;97659.24;;;21.13;27.93
77212;BME280;66206;0.000;0.000;2023-12-20T03:53:31;97656.72;;;21.05;27.91
77212;BME280;66206;0.000;0.000;2023-12-20T03:55:58;97659.99;;;21.28;27.86
77212;BME280;66206;0.000;0.000;2023-12-20T03:58:25;97657.60;;;21.33;27.93
77212;BME280;66206;0.000;0.000;2023-12-20T04:00:52;97660.25;;;21.11;27.98
77212;BME280;66206;0.000;0.000;2023-12-20T04:03:18;97657.92;;;20.97;28.07
77212;BME280;66206;0.000;0.000;2023-12-20T04:05:45;97662.80;;;21.18;27.96
77212;BME280;66206;0.000;0.000;2023-12-20T04:08:12;97658.98;;;21.01;28.04
77212;BME280;66206;0.000;0.000;2023-12-20T04:10:39;97661.50;;;21.30;27.91
77212;BME280;66206;0.000;0.000;2023-12-20T04:13:05;97662.23;;;21.02;28.02
77212;BME280;66206;0.000;0.000;2023-12-20T04:15:32;97666.72;;;21.17;27.97
77212;BME280;66206;0.000;0.000;2023-12-20T04:17:59;97665.83;;;21.00;28.01
77212;BME280;66206;0.000;0.000;2023-12-20T04:20:25;97663.23;;;21.45;27.74
77212;BME280;66206;0.000;0.000;2023-12-20T04:22:52;97665.87;;;21.32;27.75
77212;BME280;66206;0.000;0.000;2023-12-20T04:25:19;97666.41;;;21.61;27.55
77212;BME280;66206;0.000;0.000;2023-12-20T04:27:45;97666.79;;;21.63;27.44
77212;BME280;66206;0.000;0.000;2023-12-20T04:30:12;97666.38;;;21.59;27.48
77212;BME280;66206;0.000;0.000;2023-12-20T04:32:39;97658.55;;;21.62;27.39
77212;BME280;66206;0.000;0.000;2023-12-20T04:35:06;97658.08;;;21.81;27.31
77212;BME280;66206;0.000;0.000;2023-12-20T04:37:32;97657.84;;;21.67;27.33
77212;BME280;66206;0.000;0.000;2023-12-20T04:39:59;97662.72;;;21.83;27.25
77212;BME280;66206;0.000;0.000;2023-12-20T04:42:26;97666.74;;;21.77;27.22
77212;BME280;66206;0.000;0.000;2023-12-20T04:44:52;97663.69;;;21.73;27.33
77212;BME280;66206;0.000;0.000;2023-12-20T04:47:19;97664.84;;;21.70;27.37
77212;BME280;66206;0.000;0.000;2023-12-20T04:49:46;97669.59;;;21.89;27.25
77212;BME280;66206;0.000;0.000;2023-12-20T04:52:13;97664.50;;;21.71;27.36
77212;BME280;66206;0.000;0.000;2023-12-20T04:54:39;97661.81;;;21.72;27.42
77212;BME280;66206;0.000;0.000;2023-12-20T04:57:06;97665.78;;;21.76;27.46
77212;BME280;66206;0.000;0.000;2023-12-20T04:59:33;97664.60;;;21.75;27.41
77212;BME280;66206;0.000;0.000;2023-12-20T05:01:59;97671.98;;;21.81;27.29
77212;BME280;66206;0.000;0.000;2023-12-20T05:04:26;97678.22;;;21.83;27.35
77212;BME280;66206;0.000;0.000;2023-12-20T05:06:52;97681.93;;;21.85;27.33
77212;BME280;66206;0.000;0.000;2023-12-20T05:09:19;97682.23;;;21.73;27.41
77212;BME280;66206;0.000;0.000;2023-12-20T05:11:46;97682.08;;;21.82;27.39
77212;BME280;66206;0.000;0.000;2023-12-20T05:14:13;97689.42;;;21.89;27.34
77212;BME280;66206;0.000;0.000;2023-12-20T05:16:39;97689.06;;;21.88;27.40
77212;BME280;66206;0.000;0.000;2023-12-20T05:19:06;97693.96;;;21.70;27.53
77212;BME280;66206;0.000;0.000;2023-12-20T05:21:33;97704.84;;;21.89;27.45
77212;BME280;66206;0.000;0.000;2023-12-20T05:23:59;97706.06;;;21.76;27.47
77212;BME280;66206;0.000;0.000;2023-12-20T05:26:26;97701.22;;;21.82;27.53
77212;BME280;66206;0.000;0.000;2023-12-20T05:28:53;97701.14;;;21.77;27.51
77212;BME280;66206;0.000;0.000;2023-12-20T05:31:19;97706.88;;;21.81;27.58
77212;BME280;66206;0.000;0.000;2023-12-20T05:33:46;97707.74;;;21.65;27.65
77212;BME280;66206;0.000;0.000;2023-12-20T05:36:13;97711.05;;;21.65;27.64
77212;BME280;66206;0.000;0.000;2023-12-20T05:38:40;97715.11;;;21.82;27.55
77212;BME280;66206;0.000;0.000;2023-12-20T05:41:06;97713.41;;;21.85;27.44
77212;BME280;66206;0.000;0.000;2023-12-20T05:43:33;97717.42;;;21.83;27.49
77212;BME280;66206;0.000;0.000;2023-12-20T05:46:00;97713.63;;;21.83;27.51
77212;BME280;66206;0.000;0.000;2023-12-20T05:48:26;97714.42;;;21.78;27.47
77212;BME280;66206;0.000;0.000;2023-12-20T05:50:53;97715.70;;;21.90;27.34
77212;BME280;66206;0.000;0.000;2023-12-20T05:53:20;97718.99;;;21.78;27.46
77212;BME280;66206;0.000;0.000;2023-12-20T05:55:46;97724.20;;;21.81;27.49
77212;BME280;66206;0.000;0.000;2023-12-20T05:58:13;97731.05;;;21.78;27.51
77212;BME280;66206;0.000;0.000;2023-12-20T06:00:40;97734.52;;;21.80;27.52
77212;BME280;66206;0.000;0.000;2023-12-20T06:03:06;97730.46;;;21.86;27.53
77212;BME280;66206;0.000;0.000;2023-12-20T06:05:33;97733.97;;;21.86;27.43
77212;BME280;66206;0.000;0.000;2023-12-20T06:08:00;97733.31;;;21.90;27.44
77212;BME280;66206;0.000;0.000;2023-12-20T06:10:26;97732.50;;;21.94;27.29
77212;BME280;66206;0.000;0.000;2023-12-20T06:12:53;97732.38;;;21.90;27.40
77212;BME280;66206;0.000;0.000;2023-12-20T06:15:20;97732.22;;;21.90;27.42
77212;BME280;66206;0.000;0.000;2023-12-20T06:17:46;97734.28;;;21.92;27.39
77212;BME280;66206;0.000;0.000;2023-12-20T06:20:13;97741.96;;;21.95;27.41
77212;BME280;66206;0.000;0.000;2023-12-20T06:22:40;97745.45;;;22.03;27.31
77212;BME280;66206;0.000;0.000;2023-12-20T06:25:07;97755.99;;;21.99;27.30
77212;BME280;66206;0.000;0.000;2023-12-20T06:27:34;97760.95;;;21.96;27.29
77212;BME280;66206;0.000;0.000;2023-12-20T06:30:00;97762.86;;;21.98;27.28
77212;BME280;66206;0.000;0.000;2023-12-20T06:32:27;97763.49;;;21.96;27.38
77212;BME280;66206;0.000;0.000;2023-12-20T06:34:54;97763.85;;;22.01;27.28
77212;BME280;66206;0.000;0.000;2023-12-20T06:37:20;97767.37;;;22.11;27.29
77212;BME280;66206;0.000;0.000;2023-12-20T06:39:47;97766.57;;;21.91;27.40
77212;BME280;66206;0.000;0.000;2023-12-20T06:42:14;97770.23;;;21.98;27.37
77212;BME280;66206;0.000;0.000;2023-12-20T06:44:40;97773.56;;;21.95;27.51
77212;BME280;66206;0.000;0.000;2023-12-20T06:47:07;97775.78;;;21.88;27.56
77212;BME280;66206;0.000;0.000;2023-12-20T06:49:34;97776.99;;;21.88;27.61
77212;BME280;66206;0.000;0.000;2023-12-20T06:52:01;97772.23;;;21.96;27.50
77212;BME280;66206;0.000;0.000;2023-12-20T06:54:28;97775.86;;;21.87;27.61
77212;BME280;66206;0.000;0.000;2023-12-20T06:56:54;97777.48;;;21.98;27.49
77212;BME280;66206;0.000;0.000;2023-12-20T06:59:21;97781.43;;;21.94;27.50
77212;BME280;66206;0.000;0.000;2023-12-20T07:01:48;97791.59;;;21.88;27.59
77212;BME280;66206;0.000;0.000;2023-12-20T07:04:15;97791.24;;;22.05;27.41
77212;BME280;66206;0.000;0.000;2023-12-20T07:06:42;97799.71;;;22.05;27.38
77212;BME280;66206;0.000;0.000;2023-12-20T07:09:08;97805.45;;;22.04;27.43
77212;BME280;66206;0.000;0.000;2023-12-20T07:11:35;97809.12;;;21.93;27.49
77212;BME280;66206;0.000;0.000;2023-12-20T07:14:02;97814.40;;;21.94;27.55
77212;BME280;66206;0.000;0.000;2023-12-20T07:16:28;97820.61;;;22.08;27.37
77212;BME280;66206;0.000;0.000;2023-12-20T07:18:55;97826.14;;;22.07;27.46
77212;BME280;66206;0.000;0.000;2023-12-20T07:21:22;97829.00;;;21.95;27.54
77212;BME280;66206;0.000;0.000;2023-12-20T07:23:48;97830.95;;;21.87;27.53
77212;BME280;66206;0.000;0.000;2023-12-20T07:26:15;97831.19;;;22.04;27.34
77212;BME280;66206;0.000;0.000;2023-12-20T07:28:42;97833.57;;;22.05;27.40
77212;BME280;66206;0.000;0.000;2023-12-20T07:31:09;97837.60;;;22.01;27.44
77212;BME280;66206;0.000;0.000;2023-12-20T07:33:35;97837.63;;;22.12;27.45
77212;BME280;66206;0.000;0.000;2023-12-20T07:36:02;97837.65;;;22.19;27.33
77212;BME280;66206;0.000;0.000;2023-12-20T07:38:29;97839.81;;;21.98;27.59
77212;BME280;66206;0.000;0.000;2023-12-20T07:40:56;97836.96;;;22.09;27.54
77212;BME280;66206;0.000;0.000;2023-12-20T07:43:22;97840.01;;;21.89;27.51
77212;BME280;66206;0.000;0.000;2023-12-20T07:45:49;97846.22;;;21.95;27.57
77212;BME280;66206;0.000;0.000;2023-12-20T07:48:16;97841.39;;;21.99;27.50
77212;BME280;66206;0.000;0.000;2023-12-20T07:50:42;97851.33;;;22.16;27.55
77212;BME280;66206;0.000;0.000;2023-12-20T07:53:09;97846.30;;;22.05;27.53
77212;BME280;66206;0.000;0.000;2023-12-20T07:55:36;97855.70;;;22.03;27.63
77212;BME280;66206;0.000;0.000;2023-12-20T07:58:03;97853.25;;;22.04;27.54
77212;BME280;66206;0.000;0.000;2023-12-20T08:00:29;97856.96;;;22.16;27.50
77212;BME280;66206;0.000;0.000;2023-12-20T08:02:56;97860.70;;;22.23;27.41
77212;BME280;66206;0.000;0.000;2023-12-20T08:05:23;97861.19;;;22.12;27.60
77212;BME280;66206;0.000;0.000;2023-12-20T08:07:49;97857.52;;;22.26;27.65
77212;BME280;66206;0.000;0.000;2023-12-20T08:10:16;97854.29;;;22.35;27.40
77212;BME280;66206;0.000;0.000;2023-12-20T08:12:43;97854.03;;;22.77;27.11
77212;BME280;66206;0.000;0.000;2023-12-20T08:15:10;97857.54;;;22.73;26.99
77212;BME280;66206;0.000;0.000;2023-12-20T08:17:36;97855.77;;;22.67;27.17
77212;BME280;66206;0.000;0.000;2023-12-20T08:20:03;97852.63;;;22.82;26.96
77212;BME280;66206;0.000;0.000;2023-12-20T08:22:30;97848.74;;;22.62;27.18
77212;BME280;66206;0.000;0.000;2023-12-20T08:24:57;97853.71;;;23.02;27.02
77212;BME280;66206;0.000;0.000;2023-12-20T08:27:24;97849.76;;;23.06;26.91
77212;BME280;66206;0.000;0.000;2023-12-20T08:29:50;97851.64;;;22.90;27.39
77212;BME280;66206;0.000;0.000;2023-12-20T08:32:17;97859.41;;;22.99;27.28
77212;BME280;66206;0.000;0.000;2023-12-20T08:34:44;97862.47;;;22.96;27.33
77212;BME280;66206;0.000;0.000;2023-12-20T08:37:10;97864.58;;;23.04;27.18
77212;BME280;66206;0.000;0.000;2023-12-20T08:39:37;97863.73;;;22.90;27.24
77212;BME280;66206;0.000;0.000;2023-12-20T08:42:04;97858.11;;;23.16;27.10
77212;BME280;66206;0.000;0.000;2023-12-20T08:44:31;97859.31;;;23.19;26.99
77212;BME280;66206;0.000;0.000;2023-12-20T08:46:57;97856.33;;;23.15;26.98
77212;BME280;66206;0.000;0.000;2023-12-20T08:49:24;97860.95;;;22.96;27.12
77212;BME280;66206;0.000;0.000;2023-12-20T08:51:51;97858.55;;;23.25;26.83
77212;BME280;66206;0.000;0.000;2023-12-20T08:54:17;97864.63;;;23.14;26.78
77212;BME280;66206;0.000;0.000;2023-12-20T08:56:44;97871.89;;;23.23;26.90
77212;BME280;66206;0.000;0.000;2023-12-20T08:59:11;97864.94;;;23.11;26.83
77212;BME280;66206;0.000;0.000;2023-12-20T09:01:37;97863.95;;;23.21;26.84
77212;BME280;66206;0.000;0.000;2023-12-20T09:04:04;97865.70;;;23.10;26.85
77212;BME280;66206;0.000;0.000;2023-12-20T09:06:31;97854.86;;;23.11;26.65
77212;BME280;66206;0.000;0.000;2023-12-20T09:08:58;97862.40;;;23.12;26.74
77212;BME280;66206;0.000;0.000;2023-12-20T09:11:24;97858.11;;;23.18;26.65
77212;BME280;66206;0.000;0.000;2023-12-20T09:13:51;97861.27;;;23.28;26.53
77212;BME280;66206;0.000;0.000;2023-12-20T09:16:18;97867.55;;;23.20;26.57
77212;BME280;66206;0.000;0.000;2023-12-20T09:18:45;97871.94;;;23.06;26.67
77212;BME280;66206;0.000;0.000;2023-12-20T09:21:11;97873.76;;;23.18;26.53
77212;BME280;66206;0.000;0.000;2023-12-20T09:23:38;97874.18;;;23.29;26.46
77212;BME280;66206;0.000;0.000;2023-12-20T09:26:05;97880.82;;;22.93;27.11
77212;BME280;66206;0.000;0.000;2023-12-20T09:28:32;97878.35;;;23.24;26.73
77212;BME280;66206;0.000;0.000;2023-12-20T09:30:58;97870.72;;;23.14;26.62
77212;BME280;66206;0.000;0.000;2023-12-20T09:33:25;97869.46;;;22.94;26.80
77212;BME280;66206;0.000;0.000;2023-12-20T09:35:52;97868.55;;;23.22;26.65
77212;BME280;66206;0.000;0.000;2023-12-20T09:38:18;97866.85;;;23.26;26.37
77212;BME280;66206;0.000;0.000;2023-12-20T09:40:45;97876.01;;;23.40;26.28
77212;BME280;66206;0.000;0.000;2023-12-20T09:43:14;97879.08;;;23.49;26.28
77212;BME280;66206;0.000;0.000;2023-12-20T09:45:41;97877.62;;;23.28;26.26
77212;BME280;66206;0.000;0.000;2023-12-20T09:48:08;97874.05;;;23.25;26.44
77212;BME280;66206;0.000;0.000;2023-12-20T09:50:37;97878.58;;;23.39;26.30
77212;BME280;66206;0.000;0.000;2023-12-20T09:53:03;97878.63;;;23.15;26.30
77212;BME280;66206;0.000;0.000;2023-12-20T09:55:31;97881.79;;;23.21;26.34
77212;BME280;66206;0.000;0.000;2023-12-20T09:57:59;97872.43;;;23.26;26.26
77212;BME280;66206;0.000;0.000;2023-12-20T10:00:26;97865.72;;;23.07;26.35
77212;BME280;66206;0.000;0.000;2023-12-20T10:02:56;97873.17;;;23.23;26.45
77212;BME280;66206;0.000;0.000;2023-12-20T10:05:26;97873.73;;;23.28;26.39
77212;BME280;66206;0.000;0.000;2023-12-20T10:07:53;97872.78;;;23.09;26.63
77212;BME280;66206;0.000;0.000;2023-12-20T10:10:19;97867.27;;;23.19;26.42
77212;BME280;66206;0.000;0.000;2023-12-20T10:13:00;97880.19;;;23.14;26.53
77212;BME280;66206;0.000;0.000;2023-12-20T10:15:11;97882.89;;;23.25;26.41
77212;BME280;66206;0.000;0.000;2023-12-20T10:17:38;97872.17;;;23.31;26.33
77212;BME280;66206;0.000;0.000;2023-12-20T10:20:05;97865.56;;;23.33;26.30
77212;BME280;66206;0.000;0.000;2023-12-20T10:22:32;97865.39;;;23.30;26.24
77212;BME280;66206;0.000;0.000;2023-12-20T10:24:59;97862.55;;;23.36;26.20
77212;BME280;66206;0.000;0.000;2023-12-20T10:27:26;97864.28;;;23.12;26.38
77212;BME280;66206;0.000;0.000;2023-12-20T10:29:52;97856.14;;;23.14;26.39
77212;BME280;66206;0.000;0.000;2023-12-20T10:32:21;97859.84;;;23.17;26.32
77212;BME280;66206;0.000;0.000;2023-12-20T10:34:48;97864.89;;;23.09;26.40
77212;BME280;66206;0.000;0.000;2023-12-20T10:37:15;97853.30;;;23.01;26.52
77212;BME280;66206;0.000;0.000;2023-12-20T10:39:42;97854.74;;;23.12;26.43
77212;BME280;66206;0.000;0.000;2023-12-20T10:42:09;97851.33;;;23.15;26.42
77212;BME280;66206;0.000;0.000;2023-12-20T10:44:36;97850.65;;;23.06;26.45
77212;BME280;66206;0.000;0.000;2023-12-20T10:47:03;97852.61;;;22.99;26.49
77212;BME280;66206;0.000;0.000;2023-12-20T10:49:30;97850.47;;;22.94;26.54
77212;BME280;66206;0.000;0.000;2023-12-20T10:51:58;97843.61;;;23.00;26.63
77212;BME280;66206;0.000;0.000;2023-12-20T10:54:26;97842.24;;;23.10;26.34
77212;BME280;66206;0.000;0.000;2023-12-20T10:56:53;97837.61;;;23.11;26.65
77212;BME280;66206;0.000;0.000;2023-12-20T10:59:20;97838.32;;;22.81;26.61
77212;BME280;66206;0.000;0.000;2023-12-20T11:01:46;97842.78;;;23.16;26.69
77212;BME280;66206;0.000;0.000;2023-12-20T11:04:15;97832.13;;;23.12;26.51
77212;BME280;66206;0.000;0.000;2023-12-20T11:06:45;97827.15;;;23.28;26.49
77212;BME280;66206;0.000;0.000;2023-12-20T11:09:10;97829.65;;;23.08;26.50
77212;BME280;66206;0.000;0.000;2023-12-20T11:11:35;97826.03;;;23.24;26.33
77212;BME280;66206;0.000;0.000;2023-12-20T11:14:04;97824.76;;;23.30;26.36
77212;BME280;66206;0.000;0.000;2023-12-20T11:16:33;97824.22;;;23.13;26.45
77212;BME280;66206;0.000;0.000;2023-12-20T11:19:04;97823.83;;;23.10;26.61
77212;BME280;66206;0.000;0.000;2023-12-20T11:21:25;97819.10;;;23.27;26.60
77212;BME280;66206;0.000;0.000;2023-12-20T11:23:50;97827.85;;;23.10;26.60
77212;BME280;66206;0.000;0.000;2023-12-20T11:26:18;97828.98;;;23.26;26.33
77212;BME280;66206;0.000;0.000;2023-12-20T11:28:43;97842.51;;;23.27;26.40
77212;BME280;66206;0.000;0.000;2023-12-20T11:31:12;97824.82;;;23.22;26.38
77212;BME280;66206;0.000;0.000;2023-12-20T11:33:40;97820.87;;;23.27;26.36
77212;BME280;66206;0.000;0.000;2023-12-20T11:36:12;97819.47;;;23.04;26.47
77212;BME280;66206;0.000;0.000;2023-12-20T11:38:35;97810.99;;;22.96;26.66
77212;BME280;66206;0.000;0.000;2023-12-20T11:41:04;97811.21;;;23.04;26.63
77212;BME280;66206;0.000;0.000;2023-12-20T11:43:32;97808.56;;;23.19;26.43
77212;BME280;66206;0.000;0.000;2023-12-20T11:46:04;97806.43;;;23.17;26.46
77212;BME280;66206;0.000;0.000;2023-12-20T11:48:25;97807.08;;;23.22;26.48
77212;BME280;66206;0.000;0.000;2023-12-20T11:50:52;97808.67;;;23.17;26.42
77212;BME280;66206;0.000;0.000;2023-12-20T11:53:19;97811.01;;;23.28;26.23
77212;BME280;66206;0.000;0.000;2023-12-20T11:55:47;97810.28;;;23.19;26.53
77212;BME280;66206;0.000;0.000;2023-12-20T11:58:14;97814.69;;;23.26;26.28
77212;BME280;66206;0.000;0.000;2023-12-20T12:00:41;97811.32;;;23.16;26.63
77212;BME280;66206;0.000;0.000;2023-12-20T12:03:07;97808.78;;;23.14;26.59
77212;BME280;66206;0.000;0.000;2023-12-20T12:05:34;97812.80;;;23.14;26.56
77212;BME280;66206;0.000;0.000;2023-12-20T12:08:01;97811.82;;;22.98;26.68
77212;BME280;66206;0.000;0.000;2023-12-20T12:10:28;97811.18;;;22.98;26.75
77212;BME280;66206;0.000;0.000;2023-12-20T12:12:55;97811.26;;;23.28;26.42
77212;BME280;66206;0.000;0.000;2023-12-20T12:15:21;97807.93;;;23.46;26.22
77212;BME280;66206;0.000;0.000;2023-12-20T12:17:52;97805.32;;;23.22;26.31
77212;BME280;66206;0.000;0.000;2023-12-20T12:20:14;97805.79;;;23.35;26.11
77212;BME280;66206;0.000;0.000;2023-12-20T12:22:41;97804.55;;;23.33;26.15
77212;BME280;66206;0.000;0.000;2023-12-20T12:25:11;97800.95;;;23.32;26.27
77212;BME280;66206;0.000;0.000;2023-12-20T12:27:33;97800.75;;;23.44;26.21
77212;BME280;66206;0.000;0.000;2023-12-20T12:30:00;97802.43;;;23.44;26.11
77212;BME280;66206;0.000;0.000;2023-12-20T12:32:28;97801.33;;;23.29;26.23
77212;BME280;66206;0.000;0.000;2023-12-20T12:34:54;97798.63;;;23.44;26.13
77212;BME280;66206;0.000;0.000;2023-12-20T12:37:22;97799.53;;;23.28;26.44
77212;BME280;66206;0.000;0.000;2023-12-20T12:39:49;97791.14;;;23.37;26.33
77212;BME280;66206;0.000;0.000;2023-12-20T12:42:15;97794.03;;;23.27;26.37
77212;BME280;66206;0.000;0.000;2023-12-20T12:44:42;97799.57;;;23.29;26.47
77212;BME280;66206;0.000;0.000;2023-12-20T12:47:09;97795.16;;;23.26;26.38
77212;BME280;66206;0.000;0.000;2023-12-20T12:49:36;97793.39;;;23.28;26.38
77212;BME280;66206;0.000;0.000;2023-12-20T12:52:02;97790.85;;;23.09;26.32
77212;BME280;66206;0.000;0.000;2023-12-20T12:54:29;97788.04;;;23.16;26.41
77212;BME280;66206;0.000;0.000;2023-12-20T12:56:56;97788.21;;;23.24;26.35
77212;BME280;66206;0.000;0.000;2023-12-20T12:59:23;97792.80;;;23.08;26.44
77212;BME280;66206;0.000;0.000;2023-12-20T13:01:49;97790.30;;;23.14;26.49
77212;BME280;66206;0.000;0.000;2023-12-20T13:04:16;97791.87;;;23.01;26.66
77212;BME280;66206;0.000;0.000;2023-12-20T13:06:43;97785.34;;;22.96;26.52